sensor_id;sensor_type;location;lat;lon;timestamp;pressure;altitude;pressure_sealevel;temperature;humidity
5455;BME280;2750;49.050;9.250;2023-02-15T00:01:41;100209.25;;;2.44;100.00
5455;BME280;2750;49.050;9.250;2023-02-15T00:06:42;100194.06;;;2.63;100.00
5455;BME280;2750;49.050;9.250;2023-02-15T00:11:45;100190.72;;;2.75;99.52
5455;BME280;2750;49.050;9.250;2023-02-15T00:16:51;100187.56;;;3.09;98.78
5455;BME280;2750;49.050;9.250;2023-02-15T00:21:53;100177.03;;;2.73;99.21
5455;BME280;2750;49.050;9.250;2023-02-15T00:26:56;100178.66;;;2.62;99.91
5455;BME280;2750;49.050;9.250;2023-02-15T00:31:57;100185.69;;;2.87;98.28
5455;BME280;2750;49.050;9.250;2023-02-15T00:36:59;100185.66;;;2.79;98.08
5455;BME280;2750;49.050;9.250;2023-02-15T00:42:02;100188.06;;;2.63;97.87
5455;BME280;2750;49.050;9.250;2023-02-15T00:47:03;100179.75;;;2.94;98.41
5455;BME280;2750;49.050;9.250;2023-02-15T00:52:05;100178.34;;;2.25;99.27
5455;BME280;2750;49.050;9.250;2023-02-15T00:57:08;100177.34;;;2.11;100.00
5455;BME280;2750;49.050;9.250;2023-02-15T01:02:09;100168.44;;;2.65;98.53
5455;BME280;2750;49.050;9.250;2023-02-15T01:07:11;100171.09;;;2.75;97.75
5455;BME280;2750;49.050;9.250;2023-02-15T01:12:14;100174.28;;;2.50;98.97
5455;BME280;2750;49.050;9.250;2023-02-15T01:17:15;100171.75;;;2.49;99.02
5455;BME280;2750;49.050;9.250;2023-02-15T01:22:17;100170.03;;;2.51;98.70
5455;BME280;2750;49.050;9.250;2023-02-15T01:27:21;100166.13;;;3.01;96.65
5455;BME280;2750;49.050;9.250;2023-02-15T01:32:22;100163.47;;;2.87;97.16
5455;BME280;2750;49.050;9.250;2023-02-15T01:37:24;100168.59;;;2.86;96.84
5455;BME280;2750;49.050;9.250;2023-02-15T01:42:28;100166.97;;;2.99;95.43
5455;BME280;2750;49.050;9.250;2023-02-15T01:47:33;100158.56;;;3.22;94.29
5455;BME280;2750;49.050;9.250;2023-02-15T01:52:36;100159.34;;;3.11;94.24
5455;BME280;2750;49.050;9.250;2023-02-15T01:57:41;100164.88;;;2.45;96.83
5455;BME280;2750;49.050;9.250;2023-02-15T02:02:45;100158.34;;;2.83;95.81
5455;BME280;2750;49.050;9.250;2023-02-15T02:07:50;100150.84;;;3.16;94.52
5455;BME280;2750;49.050;9.250;2023-02-15T02:12:55;100142.34;;;3.25;93.62
5455;BME280;2750;49.050;9.250;2023-02-15T02:18:07;100143.41;;;2.29;96.06
5455;BME280;2750;49.050;9.250;2023-02-15T02:23:29;100146.16;;;1.64;99.08
5455;BME280;2750;49.050;9.250;2023-02-15T02:34:16;100134.91;;;1.52;99.57
5455;BME280;2750;49.050;9.250;2023-02-15T02:39:25;100135.06;;;1.64;100.00
5455;BME280;2750;49.050;9.250;2023-02-15T02:44:40;100133.94;;;2.20;97.72
5455;BME280;2750;49.050;9.250;2023-02-15T02:49:45;100120.03;;;1.96;97.98
5455;BME280;2750;49.050;9.250;2023-02-15T02:54:47;100121.50;;;2.69;96.01
5455;BME280;2750;49.050;9.250;2023-02-15T02:59:49;100120.03;;;3.07;94.33
5455;BME280;2750;49.050;9.250;2023-02-15T03:04:57;100112.50;;;3.50;93.36
5455;BME280;2750;49.050;9.250;2023-02-15T03:10:05;100121.19;;;3.82;91.82
5455;BME280;2750;49.050;9.250;2023-02-15T03:15:10;100113.28;;;3.24;91.41
5455;BME280;2750;49.050;9.250;2023-02-15T03:20:19;100111.53;;;3.19;91.99
5455;BME280;2750;49.050;9.250;2023-02-15T03:25:25;100109.00;;;3.23;93.05
5455;BME280;2750;49.050;9.250;2023-02-15T03:30:29;100109.88;;;3.31;91.50
5455;BME280;2750;49.050;9.250;2023-02-15T03:35:42;100107.31;;;3.30;92.31
5455;BME280;2750;49.050;9.250;2023-02-15T03:40:46;100110.78;;;3.43;91.43
5455;BME280;2750;49.050;9.250;2023-02-15T03:46:10;100119.38;;;3.48;89.87
5455;BME280;2750;49.050;9.250;2023-02-15T03:51:17;100127.84;;;3.31;90.69
5455;BME280;2750;49.050;9.250;2023-02-15T03:56:37;100127.88;;;3.41;90.33
5455;BME280;2750;49.050;9.250;2023-02-15T04:01:45;100126.28;;;3.67;90.42
5455;BME280;2750;49.050;9.250;2023-02-15T04:06:59;100123.94;;;2.54;92.29
5455;BME280;2750;49.050;9.250;2023-02-15T04:12:01;100119.69;;;2.54;92.77
5455;BME280;2750;49.050;9.250;2023-02-15T04:17:05;100111.28;;;2.72;92.96
5455;BME280;2750;49.050;9.250;2023-02-15T04:22:08;100116.69;;;3.20;91.48
5455;BME280;2750;49.050;9.250;2023-02-15T04:27:27;100114.28;;;3.63;90.41
5455;BME280;2750;49.050;9.250;2023-02-15T04:32:29;100107.25;;;3.10;90.67
5455;BME280;2750;49.050;9.250;2023-02-15T04:37:31;100106.41;;;3.17;90.63
5455;BME280;2750;49.050;9.250;2023-02-15T04:42:33;100105.59;;;3.21;90.74
5455;BME280;2750;49.050;9.250;2023-02-15T04:47:35;100093.63;;;3.23;89.86
5455;BME280;2750;49.050;9.250;2023-02-15T04:52:38;100102.75;;;2.74;89.77
5455;BME280;2750;49.050;9.250;2023-02-15T04:57:40;100098.53;;;2.84;90.34
5455;BME280;2750;49.050;9.250;2023-02-15T05:02:41;100090.97;;;3.08;90.78
5455;BME280;2750;49.050;9.250;2023-02-15T05:07:44;100093.63;;;3.23;90.19
5455;BME280;2750;49.050;9.250;2023-02-15T05:12:46;100096.19;;;3.25;90.29
5455;BME280;2750;49.050;9.250;2023-02-15T05:17:47;100095.34;;;3.30;89.87
5455;BME280;2750;49.050;9.250;2023-02-15T05:22:53;100092.75;;;3.23;89.07
5455;BME280;2750;49.050;9.250;2023-02-15T05:27:54;100086.50;;;2.71;89.64
5455;BME280;2750;49.050;9.250;2023-02-15T05:33:13;100089.31;;;3.13;90.46
5455;BME280;2750;49.050;9.250;2023-02-15T05:38:16;100090.19;;;3.17;89.60
5455;BME280;2750;49.050;9.250;2023-02-15T05:43:18;100083.31;;;3.10;90.20
5455;BME280;2750;49.050;9.250;2023-02-15T05:48:21;100074.75;;;3.06;89.57
5455;BME280;2750;49.050;9.250;2023-02-15T05:53:25;100086.59;;;2.83;90.38
5455;BME280;2750;49.050;9.250;2023-02-15T05:58:27;100096.78;;;2.74;90.19
5455;BME280;2750;49.050;9.250;2023-02-15T06:03:29;100093.56;;;3.14;88.97
5455;BME280;2750;49.050;9.250;2023-02-15T06:08:33;100087.34;;;2.67;89.68
5455;BME280;2750;49.050;9.250;2023-02-15T06:13:35;100097.84;;;3.18;89.59
5455;BME280;2750;49.050;9.250;2023-02-15T06:18:36;100107.25;;;3.13;89.60
5455;BME280;2750;49.050;9.250;2023-02-15T06:23:39;100101.13;;;2.87;90.04
5455;BME280;2750;49.050;9.250;2023-02-15T06:28:41;100112.59;;;2.23;92.05
5455;BME280;2750;49.050;9.250;2023-02-15T06:33:42;100110.97;;;2.28;92.45
5455;BME280;2750;49.050;9.250;2023-02-15T06:38:45;100124.47;;;2.12;92.67
5455;BME280;2750;49.050;9.250;2023-02-15T06:43:47;100133.34;;;2.52;91.01
5455;BME280;2750;49.050;9.250;2023-02-15T06:48:48;100135.63;;;2.20;92.11
5455;BME280;2750;49.050;9.250;2023-02-15T06:53:51;100127.00;;;2.09;92.14
5455;BME280;2750;49.050;9.250;2023-02-15T06:58:53;100130.63;;;2.33;92.46
5455;BME280;2750;49.050;9.250;2023-02-15T07:03:54;100130.09;;;2.75;90.86
5455;BME280;2750;49.050;9.250;2023-02-15T07:08:57;100130.22;;;2.95;90.09
5455;BME280;2750;49.050;9.250;2023-02-15T07:13:59;100144.09;;;3.38;88.77
5455;BME280;2750;49.050;9.250;2023-02-15T07:19:00;100145.00;;;3.49;88.20
5455;BME280;2750;49.050;9.250;2023-02-15T07:24:04;100150.81;;;3.09;88.42
5455;BME280;2750;49.050;9.250;2023-02-15T07:29:05;100147.38;;;3.11;89.46
5455;BME280;2750;49.050;9.250;2023-02-15T07:34:07;100145.97;;;2.32;90.69
5455;BME280;2750;49.050;9.250;2023-02-15T07:39:10;100143.31;;;2.20;91.98
5455;BME280;2750;49.050;9.250;2023-02-15T07:44:12;100137.09;;;3.01;91.36
5455;BME280;2750;49.050;9.250;2023-02-15T07:49:14;100136.44;;;3.46;90.58
5455;BME280;2750;49.050;9.250;2023-02-15T07:54:17;100124.56;;;3.79;89.28
5455;BME280;2750;49.050;9.250;2023-02-15T07:59:19;100138.34;;;4.16;87.65
5455;BME280;2750;49.050;9.250;2023-02-15T08:04:20;100142.59;;;4.04;88.13
5455;BME280;2750;49.050;9.250;2023-02-15T08:09:23;100137.50;;;4.25;87.16
5455;BME280;2750;49.050;9.250;2023-02-15T08:14:26;100142.63;;;4.20;86.08
5455;BME280;2750;49.050;9.250;2023-02-15T08:19:30;100135.72;;;3.81;86.80
5455;BME280;2750;49.050;9.250;2023-02-15T08:24:35;100150.31;;;4.29;86.59
5455;BME280;2750;49.050;9.250;2023-02-15T08:29:38;100153.75;;;4.19;87.97
5455;BME280;2750;49.050;9.250;2023-02-15T08:34:41;100146.06;;;4.44;87.99
5455;BME280;2750;49.050;9.250;2023-02-15T08:39:44;100138.34;;;4.65;86.11
5455;BME280;2750;49.050;9.250;2023-02-15T08:44:46;100150.16;;;3.57;86.25
5455;BME280;2750;49.050;9.250;2023-02-15T08:49:50;100144.38;;;4.55;87.22
5455;BME280;2750;49.050;9.250;2023-02-15T08:54:53;100138.28;;;5.13;85.33
5455;BME280;2750;49.050;9.250;2023-02-15T08:59:55;100126.34;;;4.61;84.73
5455;BME280;2750;49.050;9.250;2023-02-15T09:04:56;100128.06;;;3.98;87.79
5455;BME280;2750;49.050;9.250;2023-02-15T09:09:59;100107.47;;;3.78;88.29
5455;BME280;2750;49.050;9.250;2023-02-15T09:15:01;100104.91;;;4.83;86.75
5455;BME280;2750;49.050;9.250;2023-02-15T09:20:03;100099.53;;;5.50;84.84
5455;BME280;2750;49.050;9.250;2023-02-15T09:25:07;100098.56;;;5.72;84.03
5455;BME280;2750;49.050;9.250;2023-02-15T09:30:09;100090.88;;;5.66;82.76
5455;BME280;2750;49.050;9.250;2023-02-15T09:35:11;100092.38;;;6.09;81.86
5455;BME280;2750;49.050;9.250;2023-02-15T09:40:15;100089.75;;;6.12;80.95
5455;BME280;2750;49.050;9.250;2023-02-15T09:45:26;100089.78;;;6.06;80.42
5455;BME280;2750;49.050;9.250;2023-02-15T09:50:37;100080.03;;;7.26;78.38
5455;BME280;2750;49.050;9.250;2023-02-15T09:55:50;100076.31;;;7.48;78.69
5455;BME280;2750;49.050;9.250;2023-02-15T10:00:58;100062.47;;;7.55;77.30
5455;BME280;2750;49.050;9.250;2023-02-15T10:06:15;100058.09;;;7.58;76.80
5455;BME280;2750;49.050;9.250;2023-02-15T10:11:33;100060.16;;;8.48;75.31
5455;BME280;2750;49.050;9.250;2023-02-15T10:16:49;100062.78;;;8.47;75.16
5455;BME280;2750;49.050;9.250;2023-02-15T10:22:01;100055.34;;;8.76;73.15
5455;BME280;2750;49.050;9.250;2023-02-15T10:27:11;100064.72;;;8.34;73.25
5455;BME280;2750;49.050;9.250;2023-02-15T10:32:21;100063.06;;;7.70;76.06
5455;BME280;2750;49.050;9.250;2023-02-15T10:37:57;100054.59;;;8.19;76.45
5455;BME280;2750;49.050;9.250;2023-02-15T10:43:16;100057.13;;;8.22;75.38
5455;BME280;2750;49.050;9.250;2023-02-15T10:48:29;100039.06;;;7.65;77.95
5455;BME280;2750;49.050;9.250;2023-02-15T10:53:54;100042.13;;;7.31;78.45
5455;BME280;2750;49.050;9.250;2023-02-15T10:59:15;100038.22;;;7.65;77.63
5455;BME280;2750;49.050;9.250;2023-02-15T11:04:39;100035.50;;;7.73;77.66
5455;BME280;2750;49.050;9.250;2023-02-15T11:09:48;100045.50;;;7.36;79.64
5455;BME280;2750;49.050;9.250;2023-02-15T11:14:56;100030.44;;;7.02;80.12
5455;BME280;2750;49.050;9.250;2023-02-15T11:20:04;100024.16;;;7.84;78.67
5455;BME280;2750;49.050;9.250;2023-02-15T11:25:17;100024.22;;;7.80;77.69
5455;BME280;2750;49.050;9.250;2023-02-15T11:30:23;100023.03;;;8.00;78.91
5455;BME280;2750;49.050;9.250;2023-02-15T11:35:28;100026.91;;;7.74;78.40
5455;BME280;2750;49.050;9.250;2023-02-15T11:40:33;100031.66;;;7.40;81.02
5455;BME280;2750;49.050;9.250;2023-02-15T11:45:39;100021.97;;;7.58;80.64
5455;BME280;2750;49.050;9.250;2023-02-15T11:50:43;100009.69;;;7.73;80.10
5455;BME280;2750;49.050;9.250;2023-02-15T11:55:49;100014.31;;;7.51;80.81
5455;BME280;2750;49.050;9.250;2023-02-15T12:00:56;100013.31;;;7.59;80.58
5455;BME280;2750;49.050;9.250;2023-02-15T12:06:02;100007.44;;;8.05;79.54
5455;BME280;2750;49.050;9.250;2023-02-15T12:11:08;100000.75;;;8.45;78.72
5455;BME280;2750;49.050;9.250;2023-02-15T12:16:13;99990.91;;;8.13;78.69
5455;BME280;2750;49.050;9.250;2023-02-15T12:21:23;99992.69;;;8.62;77.55
5455;BME280;2750;49.050;9.250;2023-02-15T12:26:27;99982.78;;;8.82;76.40
5455;BME280;2750;49.050;9.250;2023-02-15T12:31:36;99965.00;;;9.07;76.06
5455;BME280;2750;49.050;9.250;2023-02-15T12:36:43;99955.72;;;9.37;75.65
5455;BME280;2750;49.050;9.250;2023-02-15T12:41:57;99953.66;;;9.51;76.68
5455;BME280;2750;49.050;9.250;2023-02-15T12:47:03;99951.78;;;10.59;75.02
5455;BME280;2750;49.050;9.250;2023-02-15T12:52:22;99952.25;;;11.87;69.97
5455;BME280;2750;49.050;9.250;2023-02-15T12:57:27;99932.13;;;12.42;69.63
5455;BME280;2750;49.050;9.250;2023-02-15T13:02:36;99916.88;;;13.26;66.90
5455;BME280;2750;49.050;9.250;2023-02-15T13:07:45;99903.00;;;13.25;66.89
5455;BME280;2750;49.050;9.250;2023-02-15T13:12:48;99891.97;;;13.61;66.86
5455;BME280;2750;49.050;9.250;2023-02-15T13:17:57;99886.56;;;13.45;66.72
5455;BME280;2750;49.050;9.250;2023-02-15T13:23:02;99879.28;;;14.92;63.46
5455;BME280;2750;49.050;9.250;2023-02-15T13:28:12;99867.88;;;14.75;64.10
5455;BME280;2750;49.050;9.250;2023-02-15T13:33:22;99858.69;;;14.08;64.95
5455;BME280;2750;49.050;9.250;2023-02-15T13:38:49;99855.78;;;13.95;65.83
5455;BME280;2750;49.050;9.250;2023-02-15T13:43:59;99851.69;;;13.48;66.80
5455;BME280;2750;49.050;9.250;2023-02-15T13:49:14;99845.09;;;12.72;68.63
5455;BME280;2750;49.050;9.250;2023-02-15T13:54:31;99834.09;;;13.31;67.43
5455;BME280;2750;49.050;9.250;2023-02-15T13:59:53;99828.03;;;13.52;67.48
5455;BME280;2750;49.050;9.250;2023-02-15T14:05:13;99823.97;;;13.65;66.77
5455;BME280;2750;49.050;9.250;2023-02-15T14:10:27;99824.06;;;14.23;65.68
5455;BME280;2750;49.050;9.250;2023-02-15T14:15:37;99820.31;;;13.69;66.50
5455;BME280;2750;49.050;9.250;2023-02-15T14:20:53;99824.63;;;13.30;67.87
5455;BME280;2750;49.050;9.250;2023-02-15T14:26:00;99815.19;;;12.82;68.40
5455;BME280;2750;49.050;9.250;2023-02-15T14:31:05;99820.56;;;12.33;69.78
5455;BME280;2750;49.050;9.250;2023-02-15T14:36:13;99821.75;;;12.69;69.55
5455;BME280;2750;49.050;9.250;2023-02-15T14:41:18;99818.97;;;13.19;68.61
5455;BME280;2750;49.050;9.250;2023-02-15T14:46:29;99823.75;;;12.63;68.99
5455;BME280;2750;49.050;9.250;2023-02-15T14:52:01;99821.41;;;12.33;70.05
5455;BME280;2750;49.050;9.250;2023-02-15T14:57:23;99816.91;;;12.83;68.79
5455;BME280;2750;49.050;9.250;2023-02-15T15:02:29;99827.34;;;12.37;69.73
5455;BME280;2750;49.050;9.250;2023-02-15T15:07:44;99826.53;;;12.12;71.10
5455;BME280;2750;49.050;9.250;2023-02-15T15:12:47;99821.56;;;12.06;71.17
5455;BME280;2750;49.050;9.250;2023-02-15T15:17:55;99819.69;;;12.09;70.19
5455;BME280;2750;49.050;9.250;2023-02-15T15:28:56;99826.84;;;11.27;72.45
5455;BME280;2750;49.050;9.250;2023-02-15T15:34:18;99823.81;;;11.39;72.94
5455;BME280;2750;49.050;9.250;2023-02-15T15:39:50;99811.72;;;11.12;72.36
5455;BME280;2750;49.050;9.250;2023-02-15T15:45:30;99817.31;;;10.72;73.42
5455;BME280;2750;49.050;9.250;2023-02-15T15:50:38;99819.25;;;10.93;72.78
5455;BME280;2750;49.050;9.250;2023-02-15T15:55:40;99811.91;;;10.79;73.16
5455;BME280;2750;49.050;9.250;2023-02-15T16:00:47;99819.78;;;10.76;73.65
5455;BME280;2750;49.050;9.250;2023-02-15T16:05:51;99825.34;;;10.35;74.48
5455;BME280;2750;49.050;9.250;2023-02-15T16:10:55;99826.66;;;9.86;76.30
5455;BME280;2750;49.050;9.250;2023-02-15T16:15:59;99821.72;;;9.77;76.15
5455;BME280;2750;49.050;9.250;2023-02-15T16:21:01;99825.72;;;9.23;77.78
5455;BME280;2750;49.050;9.250;2023-02-15T16:26:07;99829.81;;;8.96;79.23
5455;BME280;2750;49.050;9.250;2023-02-15T16:31:14;99829.16;;;8.86;80.21
5455;BME280;2750;49.050;9.250;2023-02-15T16:36:20;99844.41;;;8.60;79.72
5455;BME280;2750;49.050;9.250;2023-02-15T16:41:24;99845.38;;;8.10;80.85
5455;BME280;2750;49.050;9.250;2023-02-15T16:46:31;99858.03;;;7.79;82.84
5455;BME280;2750;49.050;9.250;2023-02-15T16:51:34;99845.09;;;7.79;82.84
5455;BME280;2750;49.050;9.250;2023-02-15T16:56:36;99853.75;;;7.28;84.56
5455;BME280;2750;49.050;9.250;2023-02-15T17:01:44;99859.78;;;7.27;83.92
5455;BME280;2750;49.050;9.250;2023-02-15T17:06:57;99862.53;;;7.14;84.07
5455;BME280;2750;49.050;9.250;2023-02-15T17:11:59;99866.09;;;7.07;83.82
5455;BME280;2750;49.050;9.250;2023-02-15T17:17:06;99860.19;;;6.99;85.40
5455;BME280;2750;49.050;9.250;2023-02-15T17:22:17;99874.81;;;7.00;83.43
5455;BME280;2750;49.050;9.250;2023-02-15T17:27:22;99865.47;;;6.90;83.62
5455;BME280;2750;49.050;9.250;2023-02-15T17:32:28;99869.97;;;6.78;83.48
5455;BME280;2750;49.050;9.250;2023-02-15T17:37:32;99879.84;;;6.47;85.97
5455;BME280;2750;49.050;9.250;2023-02-15T17:42:42;99888.28;;;6.58;85.25
5455;BME280;2750;49.050;9.250;2023-02-15T17:47:47;99881.56;;;6.45;85.31
5455;BME280;2750;49.050;9.250;2023-02-15T17:52:49;99882.44;;;6.44;83.61
5455;BME280;2750;49.050;9.250;2023-02-15T17:57:51;99872.03;;;6.51;83.29
5455;BME280;2750;49.050;9.250;2023-02-15T18:02:54;99876.53;;;6.36;84.45
5455;BME280;2750;49.050;9.250;2023-02-15T18:08:14;99876.63;;;6.25;85.28
5455;BME280;2750;49.050;9.250;2023-02-15T18:13:34;99877.75;;;6.04;85.22
5455;BME280;2750;49.050;9.250;2023-02-15T18:18:37;99879.56;;;5.93;85.96
5455;BME280;2750;49.050;9.250;2023-02-15T18:23:38;99887.34;;;5.86;86.52
5455;BME280;2750;49.050;9.250;2023-02-15T18:28:41;99884.13;;;5.62;86.96
5455;BME280;2750;49.050;9.250;2023-02-15T18:33:46;99889.53;;;5.29;87.91
5455;BME280;2750;49.050;9.250;2023-02-15T18:38:48;99891.50;;;4.94;89.06
5455;BME280;2750;49.050;9.250;2023-02-15T18:43:51;99891.63;;;4.65;90.86
5455;BME280;2750;49.050;9.250;2023-02-15T18:48:54;99886.56;;;4.56;92.05
5455;BME280;2750;49.050;9.250;2023-02-15T18:53:56;99876.91;;;4.96;90.77
5455;BME280;2750;49.050;9.250;2023-02-15T18:58:58;99861.22;;;5.29;88.04
5455;BME280;2750;49.050;9.250;2023-02-15T19:04:01;99870.72;;;5.22;86.69
5455;BME280;2750;49.050;9.250;2023-02-15T19:09:03;99867.41;;;5.08;85.68
5455;BME280;2750;49.050;9.250;2023-02-15T19:14:05;99854.56;;;5.04;87.04
5455;BME280;2750;49.050;9.250;2023-02-15T19:19:08;99863.13;;;5.03;86.90
5455;BME280;2750;49.050;9.250;2023-02-15T19:24:13;99851.91;;;5.14;87.05
5455;BME280;2750;49.050;9.250;2023-02-15T19:29:19;99851.94;;;5.11;85.92
5455;BME280;2750;49.050;9.250;2023-02-15T19:34:24;99855.53;;;4.83;86.77
5455;BME280;2750;49.050;9.250;2023-02-15T19:39:28;99854.63;;;4.92;87.09
5455;BME280;2750;49.050;9.250;2023-02-15T19:44:30;99855.56;;;4.85;86.48
5455;BME280;2750;49.050;9.250;2023-02-15T19:49:33;99848.88;;;4.49;87.93
5455;BME280;2750;49.050;9.250;2023-02-15T19:54:35;99846.31;;;4.52;88.12
5455;BME280;2750;49.050;9.250;2023-02-15T19:59:37;99850.63;;;4.47;87.76
5455;BME280;2750;49.050;9.250;2023-02-15T20:04:40;99846.22;;;4.65;86.65
5455;BME280;2750;49.050;9.250;2023-02-15T20:09:41;99855.75;;;4.47;86.52
5455;BME280;2750;49.050;9.250;2023-02-15T20:14:43;99848.97;;;4.37;86.97
5455;BME280;2750;49.050;9.250;2023-02-15T20:19:46;99849.81;;;4.29;88.03
5455;BME280;2750;49.050;9.250;2023-02-15T20:24:48;99848.09;;;4.34;86.88
5455;BME280;2750;49.050;9.250;2023-02-15T20:29:50;99856.69;;;4.27;87.49
5455;BME280;2750;49.050;9.250;2023-02-15T20:34:57;99852.41;;;4.32;86.87
5455;BME280;2750;49.050;9.250;2023-02-15T20:40:00;99854.03;;;4.47;86.60
5455;BME280;2750;49.050;9.250;2023-02-15T20:45:13;99847.31;;;4.17;86.67
5455;BME280;2750;49.050;9.250;2023-02-15T20:50:18;99843.94;;;3.96;87.66
5455;BME280;2750;49.050;9.250;2023-02-15T20:55:25;99841.41;;;3.90;88.36
5455;BME280;2750;49.050;9.250;2023-02-15T21:00:29;99849.03;;;4.17;87.75
5455;BME280;2750;49.050;9.250;2023-02-15T21:05:32;99852.50;;;4.05;87.12
5455;BME280;2750;49.050;9.250;2023-02-15T21:10:34;99848.25;;;3.97;87.38
5455;BME280;2750;49.050;9.250;2023-02-15T21:15:37;99850.78;;;3.95;86.53
5455;BME280;2750;49.050;9.250;2023-02-15T21:20:43;99851.75;;;3.52;89.03
5455;BME280;2750;49.050;9.250;2023-02-15T21:25:45;99834.59;;;3.72;87.70
5455;BME280;2750;49.050;9.250;2023-02-15T21:30:48;99826.03;;;3.87;87.01
5455;BME280;2750;49.050;9.250;2023-02-15T21:35:53;99837.16;;;3.87;86.73
5455;BME280;2750;49.050;9.250;2023-02-15T21:40:56;99832.88;;;3.86;88.44
5455;BME280;2750;49.050;9.250;2023-02-15T21:46:18;99827.69;;;4.06;88.28
5455;BME280;2750;49.050;9.250;2023-02-15T21:51:39;99839.75;;;3.75;87.90
5455;BME280;2750;49.050;9.250;2023-02-15T21:56:58;99834.69;;;3.29;88.75
5455;BME280;2750;49.050;9.250;2023-02-15T22:02:00;99842.34;;;3.20;90.41
5455;BME280;2750;49.050;9.250;2023-02-15T22:07:03;99855.97;;;2.68;91.67
5455;BME280;2750;49.050;9.250;2023-02-15T22:12:11;99858.44;;;2.50;94.11
5455;BME280;2750;49.050;9.250;2023-02-15T22:17:14;99869.63;;;2.67;94.27
5455;BME280;2750;49.050;9.250;2023-02-15T22:22:18;99864.59;;;3.21;91.83
5455;BME280;2750;49.050;9.250;2023-02-15T22:27:21;99860.31;;;3.43;90.31
5455;BME280;2750;49.050;9.250;2023-02-15T22:32:25;99856.03;;;3.34;89.65
5455;BME280;2750;49.050;9.250;2023-02-15T22:37:28;99854.31;;;3.58;88.05
5455;BME280;2750;49.050;9.250;2023-02-15T22:42:29;99858.56;;;3.65;87.61
5455;BME280;2750;49.050;9.250;2023-02-15T22:47:31;99858.59;;;3.59;87.28
5455;BME280;2750;49.050;9.250;2023-02-15T22:52:37;99859.44;;;3.30;87.83
5455;BME280;2750;49.050;9.250;2023-02-15T22:57:38;99859.47;;;3.21;87.49
5455;BME280;2750;49.050;9.250;2023-02-15T23:02:40;99852.56;;;2.75;88.16
5455;BME280;2750;49.050;9.250;2023-02-15T23:07:43;99863.69;;;2.89;87.93
5455;BME280;2750;49.050;9.250;2023-02-15T23:12:45;99861.13;;;2.89;88.17
5455;BME280;2750;49.050;9.250;2023-02-15T23:18:14;99866.28;;;3.12;86.93
5455;BME280;2750;49.050;9.250;2023-02-15T23:23:21;99858.56;;;2.97;87.05
5455;BME280;2750;49.050;9.250;2023-02-15T23:28:28;99869.69;;;3.15;85.92
5455;BME280;2750;49.050;9.250;2023-02-15T23:33:32;99868.84;;;3.16;86.58
5455;BME280;2750;49.050;9.250;2023-02-15T23:38:35;99863.66;;;2.81;87.95
5455;BME280;2750;49.050;9.250;2023-02-15T23:43:39;99867.06;;;2.67;88.83
5455;BME280;2750;49.050;9.250;2023-02-15T23:48:41;99875.53;;;2.54;88.61
5455;BME280;2750;49.050;9.250;2023-02-15T23:53:44;99870.34;;;2.32;90.55
5455;BME280;2750;49.050;9.250;2023-02-15T23:58:46;99874.72;;;2.64;89.94
